Time;durP1;ratioP1;P1;durP2;ratioP2;P2;SDS_P1;SDS_P2;PMS_P1;PMS_P2;Temp;Humidity;BMP_temperature;BMP_pressure;BME280_temperature;BME280_humidity;BME280_pressure;Samples;Min_cycle;Max_cycle;Signal;HPM_P1;HPM_P2
2023/06/03 00:01:18;;;;;;;1.40;1.30;;;15.30;42.70;14.60;96041.00;;;;4993679;28;20217;-59
2023/06/03 00:03:46;;;;;;;1.03;1.03;;;15.20;42.70;14.60;96033.00;;;;4994365;28;20190;-59
2023/06/03 00:06:14;;;;;;;1.30;1.30;;;15.20;43.10;14.60;96033.00;;;;4994296;28;20245;-59
2023/06/03 00:08:42;;;;;;;2.30;2.10;;;15.20;43.20;14.50;96038.00;;;;4994708;28;20194;-59
2023/06/03 00:11:09;;;;;;;1.47;1.37;;;15.20;43.50;14.60;96026.00;;;;4992486;28;20218;-59
2023/06/03 00:13:36;;;;;;;1.00;1.00;;;15.20;44.00;14.60;96039.00;;;;4994023;28;20182;-59
2023/06/03 00:16:03;;;;;;;0.90;0.90;;;15.20;44.00;14.60;96029.00;;;;4993969;28;20282;-59
2023/06/03 00:18:32;;;;;;;1.03;1.03;;;15.20;43.70;14.60;96025.00;;;;4994010;28;20205;-59
2023/06/03 00:21:01;;;;;;;1.17;1.17;;;15.20;43.90;14.50;96023.00;;;;4993789;28;20226;-59
2023/06/03 00:23:28;;;;;;;1.33;1.23;;;15.20;44.00;14.40;96030.00;;;;4994166;28;20654;-59
2023/06/03 00:25:55;;;;;;;1.27;1.27;;;15.10;44.10;14.30;96031.00;;;;4993632;28;20190;-59
2023/06/03 00:28:22;;;;;;;1.57;1.47;;;15.00;44.00;14.30;96029.00;;;;4993705;28;20194;-59
2023/06/03 00:30:49;;;;;;;2.30;1.83;;;15.00;44.20;14.20;96019.00;;;;4993715;28;20226;-59
2023/06/03 00:33:17;;;;;;;14.00;2.00;;;14.80;44.40;14.10;96023.00;;;;4993838;28;20606;-59
2023/06/03 00:35:45;;;;;;;1.77;1.67;;;14.80;44.80;14.20;96024.00;;;;4993561;28;20666;-59
2023/06/03 00:38:12;;;;;;;2.03;1.73;;;;;14.20;96020.00;;;;4993590;28;20273;-59
2023/06/03 00:40:40;;;;;;;1.47;1.40;;;;;14.20;96028.00;;;;4997179;28;20214;-59
2023/06/03 00:43:07;;;;;;;1.30;0.90;;;14.80;45.00;14.10;96030.00;;;;4997268;28;20201;-59
2023/06/03 00:45:34;;;;;;;1.40;1.23;;;14.80;45.50;14.00;96039.00;;;;4997197;28;20194;-61
2023/06/03 00:48:02;;;;;;;0.83;0.73;;;14.70;45.50;14.00;96027.00;;;;4997161;28;20190;-59
2023/06/03 00:50:30;;;;;;;3.17;2.87;;;14.60;45.50;13.80;96029.00;;;;4996914;28;20233;-59
2023/06/03 00:52:59;;;;;;;1.53;1.43;;;14.50;46.00;13.70;96036.00;;;;4997254;28;20198;-59
2023/06/03 00:55:26;;;;;;;1.27;1.27;;;14.40;46.60;13.70;96039.00;;;;4997201;28;20573;-59
2023/06/03 00:57:55;;;;;;;0.97;0.97;;;14.40;46.60;13.60;96026.00;;;;4997362;28;20202;-59
2023/06/03 01:00:22;;;;;;;1.00;1.00;;;14.40;46.70;13.60;96022.00;;;;4996888;28;20289;-59
2023/06/03 01:02:49;;;;;;;1.03;0.97;;;14.30;46.80;13.50;96021.00;;;;4997120;28;20198;-59
2023/06/03 01:05:17;;;;;;;4.70;1.63;;;14.30;47.00;13.50;96007.00;;;;4997086;28;20245;-59
2023/06/03 01:08:00;;;;;;;1.13;1.13;;;14.30;47.00;13.60;96016.00;;;;4996794;28;20224;-59
2023/06/03 01:10:41;;;;;;;7.27;1.63;;;14.30;47.10;13.60;96012.00;;;;4996941;28;20312;-59
2023/06/03 01:13:18;;;;;;;3.27;1.37;;;14.30;47.20;13.60;96013.00;;;;4996788;28;20175;-58
2023/06/03 01:15:48;;;;;;;1.30;1.30;;;14.30;47.00;13.50;96004.00;;;;4996951;28;20186;-59
2023/06/03 01:18:18;;;;;;;1.50;1.47;;;14.20;47.00;13.50;96004.00;;;;4996858;28;20183;-59
2023/06/03 01:20:48;;;;;;;1.07;1.07;;;14.20;47.40;13.30;96010.00;;;;5000702;22;20242;-56
2023/06/03 01:23:23;;;;;;;0.90;0.90;;;14.10;48.20;13.20;96010.00;;;;4977365;28;20566;-57
2023/06/03 01:25:52;;;;;;;1.13;1.13;;;14.00;47.80;13.10;96008.00;;;;4977768;28;20233;-57
2023/06/03 01:28:20;;;;;;;4.73;1.90;;;13.90;47.90;13.10;96007.00;;;;4977496;28;20199;-57
2023/06/03 01:30:48;;;;;;;0.80;0.80;;;13.80;48.30;13.10;96010.00;;;;4976755;28;20226;-57
2023/06/03 01:33:17;;;;;;;1.00;1.00;;;13.70;48.90;13.20;96009.00;;;;4976888;28;20202;-58
2023/06/03 01:35:46;;;;;;;1.03;1.03;;;13.80;49.00;13.10;96016.00;;;;4977071;28;20567;-57
2023/06/03 01:38:14;;;;;;;1.10;1.10;;;13.80;48.60;13.20;95996.00;;;;4976810;28;20195;-57
2023/06/03 01:40:43;;;;;;;3.27;1.00;;;13.80;48.80;13.30;96013.00;;;;4991659;28;20218;-57
2023/06/03 01:43:10;;;;;;;1.80;1.30;;;13.80;48.80;13.30;96016.00;;;;4976715;28;20234;-57
2023/06/03 01:45:37;;;;;;;1.27;1.23;;;13.90;48.70;13.20;96013.00;;;;4976873;28;20198;-57
2023/06/03 01:48:05;;;;;;;1.03;1.03;;;13.90;48.20;12.90;96021.00;;;;4976592;28;20187;-57
2023/06/03 01:50:32;;;;;;;1.50;1.40;;;13.70;48.60;13.00;96020.00;;;;4976323;28;20230;-58
2023/06/03 01:53:00;;;;;;;1.53;1.43;;;13.70;49.00;12.90;96022.00;;;;4976657;28;20697;-57
2023/06/03 01:55:27;;;;;;;20.37;1.63;;;13.60;49.60;12.70;96018.00;;;;4991431;28;20195;-58
2023/06/03 01:57:55;;;;;;;0.97;0.97;;;13.50;49.10;12.90;96019.00;;;;4976740;28;20554;-58
2023/06/03 02:00:22;;;;;;;1.83;1.10;;;13.50;49.80;13.00;96018.00;;;;4977081;28;20222;-58
2023/06/03 02:02:49;;;;;;;0.77;0.77;;;13.60;49.70;12.90;96018.00;;;;4976593;28;20225;-58
2023/06/03 02:05:16;;;;;;;1.33;1.23;;;13.60;49.50;12.90;96016.00;;;;4976524;28;20187;-58
2023/06/03 02:07:43;;;;;;;1.40;1.33;;;13.60;49.40;12.80;96011.00;;;;4976523;28;20550;-58
2023/06/03 02:10:11;;;;;;;4.53;1.67;;;13.50;49.30;12.80;96008.00;;;;4976047;28;20225;-58
2023/06/03 02:12:38;;;;;;;1.83;1.67;;;13.50;49.70;12.80;95999.00;;;;4976421;28;20191;-58
2023/06/03 02:15:08;;;;;;;0.90;0.90;;;13.50;49.70;12.80;96001.00;;;;4976137;28;20191;-58
2023/06/03 02:17:36;;;;;;;1.17;1.17;;;;;12.90;95998.00;;;;4976041;28;20183;-58
2023/06/03 02:20:05;;;;;;;1.77;1.67;;;;;12.80;96006.00;;;;4975928;28;20219;-58
2023/06/03 02:22:32;;;;;;;1.53;1.43;;;;;12.80;96000.00;;;;4976178;28;20653;-58
2023/06/03 02:25:00;;;;;;;2.33;1.73;;;;;12.70;96000.00;;;;4975947;28;20235;-60
2023/06/03 02:27:27;;;;;;;0.70;0.70;;;;;12.70;96001.00;;;;4975907;28;20202;-58
2023/06/03 02:29:55;;;;;;;2.50;2.30;;;;;12.70;95996.00;;;;4975683;28;20265;-58
2023/06/03 02:32:24;;;;;;;0.67;0.67;;;;;12.60;96003.00;;;;4976016;28;20191;-58
2023/06/03 02:34:51;;;;;;;11.50;1.37;;;;;12.50;95996.00;;;;4975728;28;20658;-58
2023/06/03 02:37:19;;;;;;;0.97;0.97;;;;;12.40;96002.00;;;;4975708;28;20201;-58
2023/06/03 02:39:47;;;;;;;0.90;0.90;;;;;12.40;96003.00;;;;4975756;28;20709;-58
2023/06/03 02:42:14;;;;;;;1.23;1.13;;;;;12.40;95996.00;;;;4975584;28;20206;-58
2023/06/03 02:44:42;;;;;;;1.20;1.20;;;;;12.40;95997.00;;;;4975512;28;20682;-58
2023/06/03 02:47:09;;;;;;;2.53;1.80;;;;;12.40;96001.00;;;;4975476;28;20206;-58
2023/06/03 02:49:38;;;;;;;1.53;1.43;;;13.10;50.70;12.40;95996.00;;;;4974030;28;20658;-58
2023/06/03 02:52:06;;;;;;;0.97;0.97;;;13.10;51.20;12.30;95999.00;;;;4975383;28;20194;-58
2023/06/03 02:54:33;;;;;;;2.33;2.13;;;13.00;51.10;12.40;95999.00;;;;4974161;28;20253;-58
2023/06/03 02:57:00;;;;;;;17.27;1.63;;;13.10;51.50;12.30;95993.00;;;;4975593;28;20195;-58
2023/06/03 02:59:27;;;;;;;0.70;0.70;;;13.00;51.50;12.30;95997.00;;;;4975235;28;20191;-58
2023/06/03 03:01:54;;;;;;;1.30;1.20;;;13.00;51.80;12.20;95999.00;;;;4975024;28;20198;-58
2023/06/03 03:04:22;;;;;;;0.93;0.93;;;13.00;51.80;12.30;96001.00;;;;4975226;28;20191;-58
2023/06/03 03:06:50;;;;;;;1.03;0.97;;;13.00;51.70;12.20;96000.00;;;;4975441;28;20191;-58
2023/06/03 03:09:18;;;;;;;0.73;0.73;;;12.90;51.70;12.10;95987.00;;;;4975108;28;20662;-58
2023/06/03 03:11:45;;;;;;;1.07;1.07;;;12.80;52.40;12.20;96003.00;;;;4974965;28;20218;-58
2023/06/03 03:14:12;;;;;;;1.00;1.00;;;12.80;52.20;12.00;96001.00;;;;4989961;28;20222;-58
2023/06/03 03:16:39;;;;;;;0.97;0.97;;;12.80;51.90;11.80;96009.00;;;;4975220;28;20242;-58
2023/06/03 03:19:06;;;;;;;1.10;1.10;;;;;11.80;96011.00;;;;4975686;28;20246;-58
2023/06/03 03:21:34;;;;;;;1.40;1.13;;;;;11.90;96012.00;;;;4974900;28;20237;-58
2023/06/03 03:24:03;;;;;;;0.80;0.80;;;;;11.80;96007.00;;;;4975552;28;20194;-58
2023/06/03 03:26:31;;;;;;;1.03;1.03;;;;;11.90;96011.00;;;;4974848;28;20191;-58
2023/06/03 03:28:58;;;;;;;0.90;0.90;;;;;11.90;96010.00;;;;4974806;28;20190;-58
2023/06/03 03:31:26;;;;;;;0.80;0.80;;;;;12.00;96000.00;;;;4974596;28;20279;-58
2023/06/03 03:33:53;;;;;;;0.70;0.70;;;;;12.00;96013.00;;;;4974969;28;20205;-58
2023/06/03 03:36:22;;;;;;;1.03;1.03;;;;;12.10;96009.00;;;;4974992;28;20186;-58
2023/06/03 03:39:00;;;;;;;1.03;1.03;;;;;12.00;96006.00;;;;4974926;28;20203;-58
2023/06/03 03:41:29;;;;;;;0.67;0.67;;;;;11.90;96003.00;;;;4974824;28;20622;-58
2023/06/03 03:43:57;;;;;;;1.63;1.37;;;;;11.90;96009.00;;;;4974602;28;20233;-58
2023/06/03 03:46:25;;;;;;;1.00;1.00;;;;;11.90;96006.00;;;;4974536;28;20225;-58
2023/06/03 03:48:52;;;;;;;1.53;1.53;;;;;11.90;96005.00;;;;4975337;28;20241;-57
2023/06/03 03:51:20;;;;;;;1.10;1.10;;;;;11.90;96009.00;;;;4974436;28;20226;-58
2023/06/03 03:53:48;;;;;;;5.33;2.03;;;;;11.90;96000.00;;;;4975204;28;20201;-58
2023/06/03 03:56:18;;;;;;;1.00;1.00;;;;;11.90;95999.00;;;;4974420;28;20202;-58
2023/06/03 03:58:48;;;;;;;0.60;0.60;;;;;11.90;96011.00;;;;4974844;28;20251;-58
2023/06/03 04:01:18;;;;;;;1.03;1.03;;;;;11.90;96000.00;;;;4974367;28;20214;-58
2023/06/03 04:03:47;;;;;;;1.40;1.40;;;;;11.90;96005.00;;;;4973137;28;20198;-59
2023/06/03 04:06:28;;;;;;;0.97;0.97;;;;;11.90;96007.00;;;;4974368;28;20267;-58
2023/06/03 04:08:56;;;;;;;1.37;1.37;;;;;11.80;96009.00;;;;4974610;28;20665;-58
2023/06/03 04:11:27;;;;;;;1.87;1.13;;;;;11.70;96005.00;;;;4974451;28;20642;-58
2023/06/03 04:13:56;;;;;;;0.60;0.60;;;;;11.70;96009.00;;;;4975884;28;20587;-58
2023/06/03 04:16:48;;;;;;;1.30;1.30;;;;;11.70;96009.00;;;;4978254;28;20270;-57
2023/06/03 04:19:20;;;;;;;0.70;0.70;;;;;11.80;96013.00;;;;4978426;28;20194;-58
2023/06/03 04:21:48;;;;;;;1.13;0.97;;;12.50;53.40;12.00;96008.00;;;;4978137;28;20685;-58
2023/06/03 04:24:17;;;;;;;1.20;1.20;;;12.60;53.50;12.00;96015.00;;;;4978116;28;20249;-57
2023/06/03 04:26:44;;;;;;;1.03;1.03;;;12.70;53.00;11.90;96018.00;;;;4978118;28;20190;-57
2023/06/03 04:29:12;;;;;;;0.87;0.87;;;12.60;53.00;12.00;96013.00;;;;4978049;28;20191;-57
2023/06/03 04:31:39;;;;;;;0.83;0.83;;;12.70;53.30;12.20;96018.00;;;;4977895;28;20227;-57
2023/06/03 04:34:06;;;;;;;1.23;1.20;;;12.80;53.20;12.20;96008.00;;;;4977961;28;20195;-57
2023/06/03 04:36:33;;;;;;;0.80;0.80;;;12.80;52.80;12.30;96016.00;;;;4977874;28;20195;-57
2023/06/03 04:39:00;;;;;;;0.93;0.93;;;12.90;52.60;12.10;96014.00;;;;4977849;28;20195;-57
2023/06/03 04:41:28;;;;;;;0.80;0.80;;;12.90;52.10;12.10;95999.00;;;;4977758;28;20631;-58
2023/06/03 04:43:55;;;;;;;0.70;0.70;;;12.70;53.00;12.00;96004.00;;;;4977779;28;20195;-58
2023/06/03 04:46:29;;;;;;;1.27;1.17;;;12.70;53.40;12.10;96005.00;;;;4977951;28;20187;-58
2023/06/03 04:48:57;;;;;;;0.80;0.80;;;12.70;53.50;12.10;96013.00;;;;4977988;28;20265;-58
2023/06/03 04:51:27;;;;;;;0.90;0.90;;;12.80;53.10;12.00;96008.00;;;;4977631;28;20223;-57
2023/06/03 04:53:56;;;;;;;1.23;1.13;;;12.70;53.50;11.90;96005.00;;;;4977678;28;20183;-57
2023/06/03 04:56:25;;;;;;;1.47;1.37;;;12.60;53.90;11.90;95996.00;;;;4992532;28;20647;-57
2023/06/03 04:58:55;;;;;;;0.97;0.97;;;12.60;54.00;12.10;96006.00;;;;4977779;28;20225;-58
2023/06/03 05:01:24;;;;;;;2.20;1.60;;;12.70;53.90;12.20;96009.00;;;;4977373;28;20223;-58
2023/06/03 05:03:52;;;;;;;0.97;0.87;;;12.80;53.80;12.40;96000.00;;;;4977456;28;20219;-58
2023/06/03 05:06:19;;;;;;;5.93;1.30;;;12.90;53.40;12.40;96012.00;;;;4977381;28;20191;-58
2023/06/03 05:08:47;;;;;;;1.67;1.57;;;12.90;53.30;12.20;96019.00;;;;4977366;28;20650;-58
2023/06/03 05:11:15;;;;;;;1.43;1.37;;;12.90;53.50;12.30;96013.00;;;;4977161;28;20248;-58
2023/06/03 05:13:42;;;;;;;1.10;1.10;;;12.90;54.00;12.40;96013.00;;;;4975944;28;20199;-58
2023/06/03 05:16:09;;;;;;;1.13;1.13;;;13.00;53.90;12.40;96023.00;;;;4977439;28;20199;-58
2023/06/03 05:18:38;;;;;;;1.53;1.47;;;13.00;53.20;12.30;96012.00;;;;4992080;28;20199;-58
2023/06/03 05:21:06;;;;;;;5.20;2.60;;;13.00;53.70;12.50;96013.00;;;;4977100;28;20230;-58
2023/06/03 05:23:33;;;;;;;1.63;1.53;;;13.10;53.60;12.70;96019.00;;;;4977071;28;20191;-58
2023/06/03 05:26:00;;;;;;;0.80;0.80;;;13.30;53.70;12.80;96008.00;;;;4976547;28;20187;-58
2023/06/03 05:28:27;;;;;;;1.50;1.40;;;13.30;53.30;12.90;96017.00;;;;4976952;28;20199;-58
2023/06/03 05:30:54;;;;;;;1.43;1.33;;;13.50;53.30;13.00;96008.00;;;;4976862;28;20238;-58
2023/06/03 05:33:27;;;;;;;0.80;0.80;;;13.60;52.80;13.00;96010.00;;;;4976879;28;20195;-57
2023/06/03 05:35:55;;;;;;;1.43;1.43;;;13.60;52.20;12.60;95991.00;;;;4976996;28;20194;-57
2023/06/03 05:38:23;;;;;;;1.40;1.30;;;13.50;53.20;12.60;95998.00;;;;4976813;28;20187;-57
2023/06/03 05:40:51;;;;;;;1.77;1.67;;;13.30;53.30;12.80;96007.00;;;;4976607;28;20238;-57
2023/06/03 05:43:18;;;;;;;0.87;0.87;;;13.30;53.70;13.00;96005.00;;;;4977116;28;20218;-57
2023/06/03 05:45:46;;;;;;;1.10;1.10;;;13.50;53.60;13.20;95994.00;;;;4976733;28;20191;-57
2023/06/03 05:48:14;;;;;;;1.87;1.73;;;13.60;53.10;12.90;95998.00;;;;4976638;28;20198;-57
2023/06/03 05:50:50;;;;;;;0.90;0.90;;;13.50;53.40;12.90;95999.00;;;;4976550;28;20230;-57
2023/06/03 05:53:22;;;;;;;1.00;1.00;;;13.50;54.00;13.10;95997.00;;;;4976712;28;20179;-57
2023/06/03 05:55:49;;;;;;;2.50;2.30;;;13.60;53.50;13.10;95987.00;;;;4976770;28;20560;-57
2023/06/03 05:58:17;;;;;;;2.47;1.67;;;13.70;52.70;13.10;95996.00;;;;4976445;28;20213;-57
2023/06/03 06:00:45;;;;;;;1.33;1.30;;;13.80;52.80;13.30;95990.00;;;;4976559;28;20218;-57
2023/06/03 06:03:13;;;;;;;1.60;1.50;;;13.90;52.60;13.40;95993.00;;;;4976524;28;20205;-57
2023/06/03 06:05:40;;;;;;;0.80;0.80;;;14.00;52.20;13.60;95999.00;;;;4975975;28;20187;-57
2023/06/03 06:08:08;;;;;;;1.00;1.00;;;14.10;52.20;13.60;95993.00;;;;4976457;28;20687;-57
2023/06/03 06:10:36;;;;;;;1.13;1.10;;;14.20;51.90;13.70;96000.00;;;;4976307;28;20210;-57
2023/06/03 06:13:03;;;;;;;1.87;1.73;;;14.20;51.70;13.80;96001.00;;;;4976120;28;20583;-57
2023/06/03 06:15:30;;;;;;;1.13;1.10;;;14.30;51.70;14.00;96006.00;;;;4976636;28;20195;-57
2023/06/03 06:17:57;;;;;;;1.00;1.00;;;14.50;50.90;14.10;95995.00;;;;4975995;28;20186;-57
2023/06/03 06:20:25;;;;;;;1.40;1.30;;;14.60;50.20;14.30;96000.00;;;;4975814;28;20215;-57
2023/06/03 06:22:52;;;;;;;1.03;1.03;;;14.80;50.00;14.40;95996.00;;;;4976273;28;20560;-57
2023/06/03 06:25:19;;;;;;;1.53;1.50;;;14.90;49.70;14.50;95994.00;;;;4990744;28;20195;-57
2023/06/03 06:27:48;;;;;;;0.83;0.83;;;15.00;49.20;14.70;96001.00;;;;4976585;28;20278;-57
2023/06/03 06:30:16;;;;;;;1.13;1.13;;;15.20;48.10;14.80;96000.00;;;;4975696;28;20210;-57
2023/06/03 06:32:50;;;;;;;1.13;1.13;;;15.20;47.90;15.00;95998.00;;;;4975814;28;20219;-57
2023/06/03 06:35:19;;;;;;;0.97;0.97;;;15.40;47.80;15.10;95992.00;;;;4975913;28;20193;-57
2023/06/03 06:37:47;;;;;;;0.90;0.90;;;15.60;47.80;15.20;95993.00;;;;4974790;28;20201;-58
2023/06/03 06:40:19;;;;;;;1.53;1.43;;;15.70;47.10;15.20;95995.00;;;;4975425;28;20285;-57
2023/06/03 06:42:49;;;;;;;1.53;1.43;;;15.80;46.60;15.40;95998.00;;;;4990512;28;20206;-57
2023/06/03 06:45:21;;;;;;;0.80;0.80;;;15.90;46.30;15.50;95995.00;;;;4975527;28;20230;-57
2023/06/03 06:47:48;;;;;;;0.90;0.90;;;16.00;46.00;15.70;95996.00;;;;4975513;28;20211;-58
2023/06/03 06:50:35;;;;;;;3.10;1.60;;;16.20;46.10;15.80;95997.00;;;;4975311;28;20219;-58
2023/06/03 06:53:04;;;;;;;1.07;1.00;;;16.30;45.80;15.80;95996.00;;;;4975597;28;20222;-58
2023/06/03 06:55:41;;;;;;;1.37;1.37;;;16.30;44.70;15.60;95996.00;;;;4975830;28;20567;-58
2023/06/03 06:58:11;;;;;;;1.20;1.20;;;16.20;44.60;15.80;95997.00;;;;4975333;28;20183;-58
2023/06/03 07:00:38;;;;;;;0.87;0.87;;;16.30;45.50;15.90;95998.00;;;;4975639;28;20218;-57
2023/06/03 07:03:08;;;;;;;1.17;1.17;;;16.40;45.00;15.90;96003.00;;;;4975158;28;20195;-57
2023/06/03 07:05:35;;;;;;;1.17;1.13;;;16.40;44.30;15.90;95999.00;;;;4974973;28;20278;-58
2023/06/03 07:08:03;;;;;;;2.57;0.87;;;16.40;44.20;15.80;95996.00;;;;4975344;28;20230;-58
2023/06/03 07:10:30;;;;;;;1.03;0.93;;;16.40;44.60;15.90;95994.00;;;;4975483;28;20222;-58
2023/06/03 07:12:57;;;;;;;1.63;1.53;;;16.50;44.30;16.20;95990.00;;;;4974844;28;20222;-57
2023/06/03 07:15:26;;;;;;;1.10;1.03;;;16.70;44.40;16.40;95990.00;;;;4975208;28;20270;-57
2023/06/03 07:17:55;;;;;;;1.50;1.40;;;16.80;44.40;16.40;95979.00;;;;4974964;28;20737;-58
2023/06/03 07:20:30;;;;;;;0.87;0.87;;;16.80;43.60;16.40;96000.00;;;;4974640;28;20218;-58
2023/06/03 07:22:58;;;;;;;1.13;1.13;;;16.80;43.30;16.40;96001.00;;;;4975167;28;20217;-58
2023/06/03 07:25:35;;;;;;;1.07;1.07;;;16.90;43.30;16.50;96006.00;;;;4974809;28;20194;-58
2023/06/03 07:28:05;;;;;;;5.73;1.67;;;17.00;43.20;16.70;95998.00;;;;4974725;28;20179;-58
2023/06/03 07:30:37;;;;;;;1.57;1.47;;;17.10;42.60;16.80;96002.00;;;;4974945;28;20285;-58
2023/06/03 07:33:06;;;;;;;1.07;1.07;;;17.30;42.30;16.90;96000.00;;;;4975192;28;20202;-58
2023/06/03 07:35:35;;;;;;;1.40;1.40;;;17.40;42.50;17.10;96002.00;;;;4974666;28;20191;-58
2023/06/03 07:38:03;;;;;;;1.40;1.30;;;17.50;42.30;17.20;96003.00;;;;4974647;28;20191;-58
2023/06/03 07:40:41;;;;;;;2.13;2.03;;;17.60;41.50;17.20;96011.00;;;;4974496;28;20682;-58
2023/06/03 07:43:09;;;;;;;0.97;0.97;;;17.70;41.70;17.10;96003.00;;;;4974579;28;20185;-58
2023/06/03 07:45:38;;;;;;;2.43;1.63;;;17.60;41.60;17.00;96002.00;;;;4974465;28;20218;-58
2023/06/03 07:48:08;;;;;;;1.07;1.07;;;17.50;42.80;17.20;96009.00;;;;4974645;28;20242;-58
2023/06/03 07:50:35;;;;;;;1.10;1.10;;;17.70;41.30;17.40;96010.00;;;;4974393;28;20223;-57
2023/06/03 07:53:04;;;;;;;4.00;2.03;;;17.80;41.60;17.40;96011.00;;;;4974396;28;20690;-58
2023/06/03 07:55:39;;;;;;;1.37;1.27;;;17.80;41.70;17.20;96016.00;;;;4974667;28;20201;-57
2023/06/03 07:58:10;;;;;;;1.33;1.23;;;17.80;41.70;17.50;96013.00;;;;4973949;28;20666;-57
2023/06/03 08:00:43;;;;;;;2.00;1.80;;;17.90;42.00;17.70;96021.00;;;;4974516;28;20218;-57
2023/06/03 08:03:15;;;;;;;0.93;0.93;;;18.10;41.70;17.60;96018.00;;;;4974410;28;20190;-58
2023/06/03 08:05:42;;;;;;;2.67;2.27;;;18.10;41.60;17.80;96020.00;;;;4974394;28;20190;-58
2023/06/03 08:08:12;;;;;;;3.23;1.33;;;18.20;40.80;17.80;96011.00;;;;4974369;28;20226;-58
2023/06/03 08:10:40;;;;;;;7.80;1.60;;;18.30;41.20;18.10;96026.00;;;;4974194;28;20211;-58
2023/06/03 08:13:07;;;;;;;1.00;1.00;;;18.40;40.90;18.30;96024.00;;;;4974437;28;20225;-59
2023/06/03 08:15:38;;;;;;;1.47;1.40;;;18.70;40.30;18.40;96018.00;;;;4974227;28;20551;-58
2023/06/03 08:18:07;;;;;;;1.10;1.10;;;18.80;39.10;18.40;96021.00;;;;4974522;28;20198;-58
2023/06/03 08:20:37;;;;;;;1.00;1.00;;;18.80;39.10;18.30;96019.00;;;;4974133;28;20228;-58
2023/06/03 08:23:05;;;;;;;1.43;1.33;;;18.70;39.90;18.20;96022.00;;;;4974400;28;20238;-58
2023/06/03 08:25:32;;;;;;;1.60;1.50;;;18.70;40.10;18.40;96019.00;;;;4974523;28;20195;-57
2023/06/03 08:28:00;;;;;;;1.60;1.30;;;18.90;40.40;18.70;96025.00;;;;4989169;28;20195;-59
2023/06/03 08:30:27;;;;;;;0.87;0.87;;;19.10;39.30;18.20;96018.00;;;;4989018;28;20215;-57
2023/06/03 08:32:56;;;;;;;1.43;1.33;;;18.80;39.10;18.50;96028.00;;;;4974357;28;20227;-57
2023/06/03 08:35:23;;;;;;;1.43;1.30;;;18.90;39.50;18.60;96021.00;;;;4974727;28;20191;-56
2023/06/03 08:37:51;;;;;;;1.43;1.33;;;19.00;40.10;18.80;96029.00;;;;4974215;28;20186;-58
2023/06/03 08:40:21;;;;;;;1.27;1.27;;;19.20;39.40;19.00;96023.00;;;;4972906;28;20215;-57
2023/06/03 08:42:49;;;;;;;1.03;1.03;;;19.40;38.50;19.00;96026.00;;;;4974328;28;20193;-57
2023/06/03 08:45:18;;;;;;;1.70;1.40;;;19.40;39.00;19.20;96029.00;;;;4974047;28;20199;-58
2023/06/03 08:48:05;;;;;;;1.00;0.97;;;19.50;38.30;19.20;96024.00;;;;4974369;28;20215;-58
2023/06/03 08:50:35;;;;;;;2.20;1.73;;;19.60;38.70;19.40;96025.00;;;;4974051;28;20214;-59
2023/06/03 08:53:09;;;;;;;0.83;0.83;;;19.80;39.40;19.60;96035.00;;;;4974215;28;20215;-59
2023/06/03 08:55:39;;;;;;;1.63;1.53;;;19.90;37.90;19.60;96031.00;;;;4974136;28;20222;-58
2023/06/03 08:58:13;;;;;;;1.70;1.60;;;20.00;37.80;19.70;96034.00;;;;4973896;28;20195;-58
2023/06/03 09:00:43;;;;;;;1.03;1.03;;;20.10;37.50;19.90;96025.00;;;;4976046;28;20210;-59
2023/06/03 09:03:13;;;;;;;2.10;1.90;;;20.30;37.70;20.10;96026.00;;;;4977733;28;20198;-59
2023/06/03 09:05:41;;;;;;;1.47;1.37;;;20.50;37.00;20.00;96034.00;;;;4977447;28;20191;-58
2023/06/03 09:08:12;;;;;;;1.93;1.83;;;20.50;37.00;20.20;96024.00;;;;4977408;28;20198;-59
2023/06/03 09:10:40;;;;;;;1.10;1.00;;;20.60;38.20;20.30;96031.00;;;;4977443;28;20301;-58
2023/06/03 09:13:09;;;;;;;1.30;1.20;;;20.80;37.80;20.70;96030.00;;;;4977270;28;20734;-58
2023/06/03 09:15:38;;;;;;;1.13;1.00;;;21.10;36.90;20.70;96033.00;;;;4977277;28;20187;-58
2023/06/03 09:18:05;;;;;;;1.43;1.33;;;21.10;34.90;20.60;96034.00;;;;4977323;28;20190;-58
2023/06/03 09:20:36;;;;;;;1.63;1.53;;;21.10;35.30;20.90;96033.00;;;;4977207;28;20226;-58
2023/06/03 09:23:04;;;;;;;2.05;1.33;;;21.20;34.60;21.10;96030.00;;;;4977437;28;20218;-57
2023/06/03 09:25:31;;;;;;;4.60;2.30;;;21.40;35.40;21.20;96033.00;;;;4976998;28;20191;-59
2023/06/03 09:27:58;;;;;;;1.40;1.13;;;21.40;35.20;21.30;96029.00;;;;4977195;28;20195;-57
2023/06/03 09:30:26;;;;;;;2.33;2.13;;;21.60;34.80;21.40;96029.00;;;;4977131;28;20257;-58
2023/06/03 09:32:53;;;;;;;1.20;1.17;;;21.70;34.80;21.50;96026.00;;;;4976919;28;20305;-58
2023/06/03 09:35:20;;;;;;;0.70;0.70;;;21.90;34.10;21.60;96023.00;;;;4977085;28;20191;-58
2023/06/03 09:38:00;;;;;;;3.92;1.98;;;21.90;34.60;21.80;96037.00;;;;4977139;28;20249;-58
2023/06/03 09:40:30;;;;;;;1.15;1.15;;;22.20;33.50;21.40;96038.00;;;;4976761;28;20219;-57
2023/06/03 09:42:58;;;;;;;1.00;1.00;;;21.90;33.40;21.50;96029.00;;;;4976772;28;20195;-58
2023/06/03 09:45:30;;;;;;;1.23;1.13;;;21.90;34.10;21.50;96034.00;;;;4976728;28;20207;-58
2023/06/03 09:47:58;;;;;;;0.90;0.90;;;21.90;34.00;21.20;96031.00;;;;4976984;28;20635;-58
2023/06/03 09:50:29;;;;;;;3.05;1.35;;;21.70;33.60;21.30;96028.00;;;;4976481;28;20222;-58
2023/06/03 09:52:57;;;;;;;1.45;1.38;;;21.70;34.60;21.50;96028.00;;;;4976815;28;20658;-56
2023/06/03 09:55:32;;;;;;;0.98;0.98;;;21.80;35.80;21.20;96018.00;;;;4976537;28;20195;-58
2023/06/03 09:58:04;;;;;;;0.95;0.95;;;21.80;33.70;21.20;96034.00;;;;4976732;28;20178;-55
2023/06/03 10:00:33;;;;;;;3.35;1.75;;;21.70;35.00;21.30;96033.00;;;;4976525;28;20246;-57
2023/06/03 10:03:09;;;;;;;1.20;1.13;;;21.70;34.70;21.70;96038.00;;;;4976313;28;20191;-57
2023/06/03 10:05:36;;;;;;;2.10;1.90;;;21.90;35.20;21.70;96034.00;;;;4991192;28;20676;-56
2023/06/03 10:08:04;;;;;;;10.23;1.33;;;22.00;34.70;21.60;96025.00;;;;4976671;28;20194;-56
2023/06/03 10:10:35;;;;;;;2.83;2.50;;;22.00;34.90;21.60;96038.00;;;;4975689;28;20217;-56
2023/06/03 10:13:21;;;;;;;0.88;0.88;;;22.00;34.30;21.70;96031.00;;;;4975584;28;20572;-57
2023/06/03 10:15:50;;;;;;;1.52;1.00;;;22.10;34.20;21.70;96029.00;;;;4976111;28;20193;-57
2023/06/03 10:18:18;;;;;;;1.02;0.98;;;22.10;33.50;21.70;96035.00;;;;4976080;28;20190;-57
2023/06/03 10:20:45;;;;;;;3.25;1.15;;;22.10;33.90;21.70;96020.00;;;;4975911;28;20269;-57
2023/06/03 10:23:12;;;;;;;1.60;1.50;;;22.20;33.40;21.80;96022.00;;;;4976094;28;20193;-57
2023/06/03 10:25:45;;;;;;;1.55;1.45;;;22.20;34.10;22.00;96009.00;;;;4975918;28;20202;-56
2023/06/03 10:28:14;;;;;;;1.45;1.35;;;22.30;32.40;22.30;96029.00;;;;4990809;28;20191;-58
2023/06/03 10:30:42;;;;;;;0.88;0.88;;;22.50;32.80;21.80;96016.00;;;;4975993;28;20211;-57
2023/06/03 10:33:10;;;;;;;0.82;0.82;;;22.30;33.00;21.60;96021.00;;;;4975677;28;20266;-57
2023/06/03 10:35:39;;;;;;;1.15;1.15;;;22.10;33.70;21.80;96027.00;;;;4990784;28;20195;-56
2023/06/03 10:38:09;;;;;;;1.30;1.20;;;22.20;34.50;21.70;96021.00;;;;4975849;28;20191;-59
2023/06/03 10:40:36;;;;;;;2.72;1.80;;;22.10;33.40;22.20;96022.00;;;;4974274;28;20214;-59
2023/06/03 10:43:06;;;;;;;0.85;0.85;;;22.40;33.50;22.50;96025.00;;;;4975607;28;20222;-57
2023/06/03 10:45:34;;;;;;;1.52;1.42;;;22.70;34.10;22.50;96020.00;;;;4975546;28;20222;-57
2023/06/03 10:48:07;;;;;;;1.33;1.23;;;22.80;32.90;22.40;96012.00;;;;4975611;28;20191;-57
2023/06/03 10:50:55;;;;;;;1.60;1.50;;;22.80;33.60;22.60;96022.00;;;;4975975;28;20211;-57
2023/06/03 10:53:40;;;;;;;1.33;1.25;;;23.00;33.40;22.70;96017.00;;;;4975279;28;20670;-57
2023/06/03 10:56:17;;;;;;;2.83;2.13;;;23.10;31.80;22.80;96016.00;;;;4975951;28;20190;-57
2023/06/03 10:58:48;;;;;;;0.80;0.80;;;23.10;33.50;23.00;96016.00;;;;4990336;28;20317;-57
2023/06/03 11:01:15;;;;;;;0.90;0.90;;;23.20;32.10;23.10;96016.00;;;;4975236;28;20682;-57
2023/06/03 11:04:17;;;;;;;1.40;1.05;;;23.40;31.50;23.30;96022.00;;;;4975244;28;20218;-58
2023/06/03 11:06:46;;;;;;;1.55;1.45;;;23.50;31.20;23.40;96020.00;;;;4975274;28;20197;-58
2023/06/03 11:09:16;;;;;;;8.68;1.30;;;23.70;31.80;23.40;96014.00;;;;4990096;28;20254;-56
2023/06/03 11:12:03;;;;;;;0.75;0.75;;;23.70;31.80;23.30;96020.00;;;;4975018;28;20297;-57
2023/06/03 11:14:54;;;;;;;0.95;0.95;;;;;23.70;96007.00;;;;4990006;28;20636;-57